sensor_id;sensor_type;location;lat;lon;timestamp;temperature;humidity
41944;DHT22;27636;52.610;13.244;2022-10-16T00:02:11;14.50;99.90
41944;DHT22;27636;52.610;13.244;2022-10-16T00:07:14;14.50;99.90
41944;DHT22;27636;52.610;13.244;2022-10-16T00:12:18;14.70;99.90
41944;DHT22;27636;52.610;13.244;2022-10-16T00:17:23;14.70;99.90
41944;DHT22;27636;52.610;13.244;2022-10-16T00:22:26;14.80;99.90
41944;DHT22;27636;52.610;13.244;2022-10-16T00:27:30;14.60;99.90
41944;DHT22;27636;52.610;13.244;2022-10-16T00:32:35;14.50;99.90
41944;DHT22;27636;52.610;13.244;2022-10-16T00:37:38;14.50;99.90
41944;DHT22;27636;52.610;13.244;2022-10-16T00:42:41;14.70;99.90
41944;DHT22;27636;52.610;13.244;2022-10-16T00:47:47;14.90;99.90
41944;DHT22;27636;52.610;13.244;2022-10-16T00:52:52;14.90;99.90
41944;DHT22;27636;52.610;13.244;2022-10-16T00:57:56;14.90;99.90
41944;DHT22;27636;52.610;13.244;2022-10-16T01:03:02;14.90;99.90
41944;DHT22;27636;52.610;13.244;2022-10-16T03:44:38;13.30;99.90
41944;DHT22;27636;52.610;13.244;2022-10-16T03:49:41;13.30;99.90
41944;DHT22;27636;52.610;13.244;2022-10-16T03:54:45;13.20;99.90
41944;DHT22;27636;52.610;13.244;2022-10-16T03:59:50;13.30;99.90
41944;DHT22;27636;52.610;13.244;2022-10-16T04:04:53;13.30;99.90
41944;DHT22;27636;52.610;13.244;2022-10-16T04:09:57;13.30;99.90
41944;DHT22;27636;52.610;13.244;2022-10-16T04:15:03;13.30;99.90
41944;DHT22;27636;52.610;13.244;2022-10-16T04:20:07;13.30;99.90
41944;DHT22;27636;52.610;13.244;2022-10-16T04:25:11;13.30;99.90
41944;DHT22;27636;52.610;13.244;2022-10-16T04:30:16;13.20;99.90
41944;DHT22;27636;52.610;13.244;2022-10-16T04:35:20;13.10;99.90
41944;DHT22;27636;52.610;13.244;2022-10-16T04:40:23;13.20;99.90
41944;DHT22;27636;52.610;13.244;2022-10-16T04:45:28;13.20;99.90
41944;DHT22;27636;52.610;13.244;2022-10-16T04:50:31;13.10;99.90
41944;DHT22;27636;52.610;13.244;2022-10-16T04:55:41;13.10;99.90
41944;DHT22;27636;52.610;13.244;2022-10-16T05:00:46;12.90;99.90
41944;DHT22;27636;52.610;13.244;2022-10-16T05:05:49;12.90;99.90
41944;DHT22;27636;52.610;13.244;2022-10-16T05:24:32;12.80;99.90
41944;DHT22;27636;52.610;13.244;2022-10-16T05:29:36;12.90;99.90
41944;DHT22;27636;52.610;13.244;2022-10-16T05:34:39;12.90;99.90
41944;DHT22;27636;52.610;13.244;2022-10-16T05:39:44;12.90;99.90
41944;DHT22;27636;52.610;13.244;2022-10-16T05:44:47;12.90;99.90
41944;DHT22;27636;52.610;13.244;2022-10-16T05:49:50;12.90;99.90
41944;DHT22;27636;52.610;13.244;2022-10-16T06:11:21;13.30;99.90
41944;DHT22;27636;52.610;13.244;2022-10-16T06:16:26;13.40;99.90
41944;DHT22;27636;52.610;13.244;2022-10-16T06:21:29;13.60;99.90
41944;DHT22;27636;52.610;13.244;2022-10-16T06:26:34;13.80;99.90
41944;DHT22;27636;52.610;13.244;2022-10-16T06:31:38;13.90;99.90
41944;DHT22;27636;52.610;13.244;2022-10-16T06:36:41;14.10;99.90
41944;DHT22;27636;52.610;13.244;2022-10-16T06:41:47;14.30;99.90
41944;DHT22;27636;52.610;13.244;2022-10-16T06:46:51;14.30;99.90
41944;DHT22;27636;52.610;13.244;2022-10-16T06:51:55;14.70;99.90
41944;DHT22;27636;52.610;13.244;2022-10-16T06:57:00;14.70;99.90
41944;DHT22;27636;52.610;13.244;2022-10-16T07:02:04;14.80;99.90
41944;DHT22;27636;52.610;13.244;2022-10-16T07:07:08;14.90;99.90
41944;DHT22;27636;52.610;13.244;2022-10-16T07:12:12;15.20;99.90
41944;DHT22;27636;52.610;13.244;2022-10-16T07:17:16;15.40;99.90
41944;DHT22;27636;52.610;13.244;2022-10-16T07:22:19;15.50;99.90
41944;DHT22;27636;52.610;13.244;2022-10-16T07:27:24;15.70;99.90
41944;DHT22;27636;52.610;13.244;2022-10-16T07:32:27;16.10;99.90
41944;DHT22;27636;52.610;13.244;2022-10-16T07:37:31;16.60;99.90
41944;DHT22;27636;52.610;13.244;2022-10-16T07:42:35;16.70;99.90
41944;DHT22;27636;52.610;13.244;2022-10-16T07:47:38;17.00;99.90
41944;DHT22;27636;52.610;13.244;2022-10-16T07:52:42;17.20;99.90
41944;DHT22;27636;52.610;13.244;2022-10-16T07:57:46;17.20;99.90
41944;DHT22;27636;52.610;13.244;2022-10-16T08:02:50;17.00;99.90
41944;DHT22;27636;52.610;13.244;2022-10-16T08:07:53;17.00;99.90
41944;DHT22;27636;52.610;13.244;2022-10-16T08:12:57;16.90;99.90
41944;DHT22;27636;52.610;13.244;2022-10-16T08:18:04;17.10;99.90
41944;DHT22;27636;52.610;13.244;2022-10-16T08:23:07;17.10;99.90
41944;DHT22;27636;52.610;13.244;2022-10-16T08:28:13;17.30;99.90
41944;DHT22;27636;52.610;13.244;2022-10-16T08:33:16;17.30;99.90
41944;DHT22;27636;52.610;13.244;2022-10-16T08:38:20;17.40;99.90
41944;DHT22;27636;52.610;13.244;2022-10-16T08:43:40;17.50;99.90
41944;DHT22;27636;52.610;13.244;2022-10-16T08:48:48;17.90;99.90
41944;DHT22;27636;52.610;13.244;2022-10-16T08:53:54;18.00;99.90
41944;DHT22;27636;52.610;13.244;2022-10-16T08:59:00;18.40;99.90
41944;DHT22;27636;52.610;13.244;2022-10-16T09:04:30;19.20;99.90
41944;DHT22;27636;52.610;13.244;2022-10-16T09:09:50;19.90;99.90
41944;DHT22;27636;52.610;13.244;2022-10-16T09:15:05;19.90;99.90
41944;DHT22;27636;52.610;13.244;2022-10-16T09:20:19;20.20;99.90
41944;DHT22;27636;52.610;13.244;2022-10-16T09:25:26;21.20;99.90
41944;DHT22;27636;52.610;13.244;2022-10-16T09:30:31;21.10;99.90
41944;DHT22;27636;52.610;13.244;2022-10-16T09:35:37;20.50;99.90
41944;DHT22;27636;52.610;13.244;2022-10-16T09:40:42;20.20;99.90
41944;DHT22;27636;52.610;13.244;2022-10-16T09:45:55;19.70;99.90
41944;DHT22;27636;52.610;13.244;2022-10-16T09:51:00;20.20;99.90
41944;DHT22;27636;52.610;13.244;2022-10-16T09:56:04;20.20;99.90
41944;DHT22;27636;52.610;13.244;2022-10-16T10:01:16;20.40;99.90
41944;DHT22;27636;52.610;13.244;2022-10-16T10:06:23;20.40;99.90
41944;DHT22;27636;52.610;13.244;2022-10-16T10:11:38;20.10;99.90
41944;DHT22;27636;52.610;13.244;2022-10-16T10:16:43;19.90;99.90
41944;DHT22;27636;52.610;13.244;2022-10-16T10:21:47;19.80;99.90
41944;DHT22;27636;52.610;13.244;2022-10-16T10:26:56;20.30;99.90
41944;DHT22;27636;52.610;13.244;2022-10-16T10:32:12;20.50;99.90
41944;DHT22;27636;52.610;13.244;2022-10-16T10:37:32;20.60;99.90
41944;DHT22;27636;52.610;13.244;2022-10-16T10:42:44;20.40;99.90
41944;DHT22;27636;52.610;13.244;2022-10-16T10:48:13;20.80;99.90
41944;DHT22;27636;52.610;13.244;2022-10-16T10:53:31;21.00;99.90
41944;DHT22;27636;52.610;13.244;2022-10-16T10:58:54;20.80;99.90
41944;DHT22;27636;52.610;13.244;2022-10-16T11:04:32;20.90;99.90
41944;DHT22;27636;52.610;13.244;2022-10-16T11:09:40;21.00;99.90
41944;DHT22;27636;52.610;13.244;2022-10-16T11:14:49;20.90;99.90
41944;DHT22;27636;52.610;13.244;2022-10-16T11:20:02;20.70;99.90
41944;DHT22;27636;52.610;13.244;2022-10-16T11:25:13;20.40;99.90
41944;DHT22;27636;52.610;13.244;2022-10-16T11:30:20;20.50;99.90
41944;DHT22;27636;52.610;13.244;2022-10-16T11:35:37;20.70;99.90
41944;DHT22;27636;52.610;13.244;2022-10-16T11:40:43;20.90;99.90
41944;DHT22;27636;52.610;13.244;2022-10-16T11:45:52;20.70;99.90
41944;DHT22;27636;52.610;13.244;2022-10-16T11:51:02;21.10;99.90
41944;DHT22;27636;52.610;13.244;2022-10-16T11:56:12;22.10;99.90
41944;DHT22;27636;52.610;13.244;2022-10-16T12:01:20;22.00;99.90
41944;DHT22;27636;52.610;13.244;2022-10-16T12:06:36;23.10;97.70
41944;DHT22;27636;52.610;13.244;2022-10-16T12:11:40;24.70;93.70
41944;DHT22;27636;52.610;13.244;2022-10-16T12:16:52;24.80;90.20
41944;DHT22;27636;52.610;13.244;2022-10-16T12:21:59;24.30;86.90
41944;DHT22;27636;52.610;13.244;2022-10-16T12:27:05;24.70;86.20
41944;DHT22;27636;52.610;13.244;2022-10-16T12:32:26;24.40;82.50
41944;DHT22;27636;52.610;13.244;2022-10-16T12:37:51;24.50;81.90
41944;DHT22;27636;52.610;13.244;2022-10-16T12:42:55;24.50;81.30
41944;DHT22;27636;52.610;13.244;2022-10-16T12:48:00;24.40;80.50
41944;DHT22;27636;52.610;13.244;2022-10-16T12:53:18;24.20;83.10
41944;DHT22;27636;52.610;13.244;2022-10-16T12:58:43;23.80;83.20
41944;DHT22;27636;52.610;13.244;2022-10-16T13:09:40;21.10;88.90
41944;DHT22;27636;52.610;13.244;2022-10-16T13:15:17;20.40;91.70
41944;DHT22;27636;52.610;13.244;2022-10-16T13:20:29;19.80;94.00
41944;DHT22;27636;52.610;13.244;2022-10-16T13:25:44;19.40;95.90
41944;DHT22;27636;52.610;13.244;2022-10-16T13:30:53;19.20;97.00
41944;DHT22;27636;52.610;13.244;2022-10-16T13:35:57;19.20;96.30
41944;DHT22;27636;52.610;13.244;2022-10-16T13:41:05;19.60;96.70
41944;DHT22;27636;52.610;13.244;2022-10-16T13:46:13;20.60;94.00
41944;DHT22;27636;52.610;13.244;2022-10-16T13:51:18;21.00;91.90
41944;DHT22;27636;52.610;13.244;2022-10-16T13:57:06;20.60;91.50
41944;DHT22;27636;52.610;13.244;2022-10-16T14:02:33;20.30;92.80
41944;DHT22;27636;52.610;13.244;2022-10-16T14:07:40;20.10;93.30
41944;DHT22;27636;52.610;13.244;2022-10-16T14:12:54;20.00;93.50
41944;DHT22;27636;52.610;13.244;2022-10-16T14:17:58;19.70;94.40
41944;DHT22;27636;52.610;13.244;2022-10-16T14:23:03;19.60;94.50
41944;DHT22;27636;52.610;13.244;2022-10-16T14:28:16;19.60;95.50
41944;DHT22;27636;52.610;13.244;2022-10-16T14:33:30;19.40;95.90
41944;DHT22;27636;52.610;13.244;2022-10-16T14:38:34;19.40;97.10
41944;DHT22;27636;52.610;13.244;2022-10-16T14:43:40;19.20;97.60
41944;DHT22;27636;52.610;13.244;2022-10-16T14:48:46;19.10;97.90
41944;DHT22;27636;52.610;13.244;2022-10-16T14:53:51;19.00;96.90
41944;DHT22;27636;52.610;13.244;2022-10-16T14:59:03;19.00;96.10
41944;DHT22;27636;52.610;13.244;2022-10-16T15:04:08;18.90;95.80
41944;DHT22;27636;52.610;13.244;2022-10-16T15:09:12;18.90;95.50
41944;DHT22;27636;52.610;13.244;2022-10-16T15:14:16;18.70;95.90
41944;DHT22;27636;52.610;13.244;2022-10-16T15:19:19;18.50;97.10
41944;DHT22;27636;52.610;13.244;2022-10-16T15:24:23;18.40;98.10
41944;DHT22;27636;52.610;13.244;2022-10-16T15:29:27;18.10;99.20
41944;DHT22;27636;52.610;13.244;2022-10-16T15:34:30;17.70;99.90
41944;DHT22;27636;52.610;13.244;2022-10-16T15:39:34;17.40;99.90
41944;DHT22;27636;52.610;13.244;2022-10-16T15:44:44;17.10;99.90
41944;DHT22;27636;52.610;13.244;2022-10-16T15:49:47;16.80;99.90
41944;DHT22;27636;52.610;13.244;2022-10-16T15:54:51;16.30;99.90
41944;DHT22;27636;52.610;13.244;2022-10-16T15:59:58;16.10;99.90
41944;DHT22;27636;52.610;13.244;2022-10-16T16:05:01;15.70;99.90
41944;DHT22;27636;52.610;13.244;2022-10-16T16:10:06;15.30;99.90
41944;DHT22;27636;52.610;13.244;2022-10-16T16:15:11;14.90;99.90
41944;DHT22;27636;52.610;13.244;2022-10-16T16:20:14;14.60;99.90
41944;DHT22;27636;52.610;13.244;2022-10-16T16:25:17;14.30;99.90
41944;DHT22;27636;52.610;13.244;2022-10-16T16:30:23;14.00;99.90
41944;DHT22;27636;52.610;13.244;2022-10-16T16:50:37;13.30;99.90
41944;DHT22;27636;52.610;13.244;2022-10-16T16:55:40;12.90;99.90
41944;DHT22;27636;52.610;13.244;2022-10-16T17:00:45;12.70;99.90
41944;DHT22;27636;52.610;13.244;2022-10-16T17:06:00;12.60;99.90
41944;DHT22;27636;52.610;13.244;2022-10-16T17:11:04;12.50;99.90
41944;DHT22;27636;52.610;13.244;2022-10-16T17:16:08;12.20;99.90
41944;DHT22;27636;52.610;13.244;2022-10-16T17:21:13;12.10;99.90
41944;DHT22;27636;52.610;13.244;2022-10-16T17:26:17;11.90;99.90
41944;DHT22;27636;52.610;13.244;2022-10-16T17:31:21;11.80;99.90
41944;DHT22;27636;52.610;13.244;2022-10-16T17:36:27;11.80;99.90
41944;DHT22;27636;52.610;13.244;2022-10-16T17:41:34;11.50;99.90
41944;DHT22;27636;52.610;13.244;2022-10-16T17:46:38;11.30;99.90
41944;DHT22;27636;52.610;13.244;2022-10-16T17:51:44;11.10;99.90
41944;DHT22;27636;52.610;13.244;2022-10-16T17:56:48;11.30;99.90
41944;DHT22;27636;52.610;13.244;2022-10-16T18:01:51;11.20;99.90
41944;DHT22;27636;52.610;13.244;2022-10-16T18:06:56;11.00;99.90
41944;DHT22;27636;52.610;13.244;2022-10-16T18:11:59;10.80;99.90
41944;DHT22;27636;52.610;13.244;2022-10-16T18:38:34;10.70;99.90
41944;DHT22;27636;52.610;13.244;2022-10-16T18:43:37;10.60;99.90
41944;DHT22;27636;52.610;13.244;2022-10-16T18:48:41;10.60;99.90
41944;DHT22;27636;52.610;13.244;2022-10-16T18:53:47;10.40;99.90
41944;DHT22;27636;52.610;13.244;2022-10-16T18:58:52;10.30;99.90
41944;DHT22;27636;52.610;13.244;2022-10-16T19:03:57;10.30;99.90
41944;DHT22;27636;52.610;13.244;2022-10-16T19:09:02;10.40;99.90
41944;DHT22;27636;52.610;13.244;2022-10-16T19:14:06;10.50;99.90
41944;DHT22;27636;52.610;13.244;2022-10-16T19:19:11;10.60;99.90
41944;DHT22;27636;52.610;13.244;2022-10-16T19:24:16;10.60;99.90
41944;DHT22;27636;52.610;13.244;2022-10-16T19:29:19;10.60;99.90
41944;DHT22;27636;52.610;13.244;2022-10-16T19:34:22;10.50;99.90
41944;DHT22;27636;52.610;13.244;2022-10-16T19:39:27;10.50;99.90
41944;DHT22;27636;52.610;13.244;2022-10-16T19:44:30;10.60;99.90
41944;DHT22;27636;52.610;13.244;2022-10-16T19:49:34;10.60;99.90
41944;DHT22;27636;52.610;13.244;2022-10-16T19:54:39;10.70;99.90
41944;DHT22;27636;52.610;13.244;2022-10-16T19:59:42;10.70;99.90
41944;DHT22;27636;52.610;13.244;2022-10-16T20:04:47;10.80;99.90
41944;DHT22;27636;52.610;13.244;2022-10-16T20:09:52;10.80;99.90
41944;DHT22;27636;52.610;13.244;2022-10-16T20:14:55;10.80;99.90
41944;DHT22;27636;52.610;13.244;2022-10-16T20:19:58;10.80;99.90
41944;DHT22;27636;52.610;13.244;2022-10-16T20:25:03;10.70;99.90
41944;DHT22;27636;52.610;13.244;2022-10-16T20:30:12;10.70;99.90
41944;DHT22;27636;52.610;13.244;2022-10-16T20:35:15;10.60;99.90
41944;DHT22;27636;52.610;13.244;2022-10-16T20:40:19;10.60;99.90
41944;DHT22;27636;52.610;13.244;2022-10-16T20:45:22;10.60;99.90
41944;DHT22;27636;52.610;13.244;2022-10-16T20:50:28;10.70;99.90
41944;DHT22;27636;52.610;13.244;2022-10-16T20:55:35;10.70;99.90
41944;DHT22;27636;52.610;13.244;2022-10-16T21:00:39;10.80;99.90
41944;DHT22;27636;52.610;13.244;2022-10-16T21:05:42;10.90;99.90
41944;DHT22;27636;52.610;13.244;2022-10-16T21:10:46;10.90;99.90
41944;DHT22;27636;52.610;13.244;2022-10-16T21:15:49;10.90;99.90
41944;DHT22;27636;52.610;13.244;2022-10-16T21:20:53;11.00;99.90
41944;DHT22;27636;52.610;13.244;2022-10-16T21:25:57;11.00;99.90
41944;DHT22;27636;52.610;13.244;2022-10-16T21:31:10;11.00;99.90
41944;DHT22;27636;52.610;13.244;2022-10-16T21:36:16;11.00;99.90
41944;DHT22;27636;52.610;13.244;2022-10-16T21:41:22;11.10;99.90
41944;DHT22;27636;52.610;13.244;2022-10-16T21:46:27;11.10;99.90
41944;DHT22;27636;52.610;13.244;2022-10-16T21:51:33;11.10;99.90
41944;DHT22;27636;52.610;13.244;2022-10-16T21:56:38;11.10;99.90
